sensor_id;sensor_type;location;lat;lon;timestamp;temperature;humidity
67093;SHT31;54011;50.772;7.730;2023-09-08T00:00:05;22.79;63.70
67093;SHT31;54011;50.772;7.730;2023-09-08T00:02:32;22.35;64.11
67093;SHT31;54011;50.772;7.730;2023-09-08T00:04:59;22.48;63.28
67093;SHT31;54011;50.772;7.730;2023-09-08T00:07:25;22.81;62.88
67093;SHT31;54011;50.772;7.730;2023-09-08T00:09:50;22.75;63.00
67093;SHT31;54011;50.772;7.730;2023-09-08T00:12:16;22.69;63.08
67093;SHT31;54011;50.772;7.730;2023-09-08T00:14:42;22.52;63.43
67093;SHT31;54011;50.772;7.730;2023-09-08T00:17:08;22.62;63.39
67093;SHT31;54011;50.772;7.730;2023-09-08T00:19:34;22.72;63.57
67093;SHT31;54011;50.772;7.730;2023-09-08T00:22:00;22.66;63.66
67093;SHT31;54011;50.772;7.730;2023-09-08T00:24:27;22.55;64.22
67093;SHT31;54011;50.772;7.730;2023-09-08T00:26:52;22.40;65.11
67093;SHT31;54011;50.772;7.730;2023-09-08T00:29:19;22.47;64.50
67093;SHT31;54011;50.772;7.730;2023-09-08T00:31:44;22.41;64.04
67093;SHT31;54011;50.772;7.730;2023-09-08T00:34:10;22.24;64.86
67093;SHT31;54011;50.772;7.730;2023-09-08T00:36:36;22.37;64.58
67093;SHT31;54011;50.772;7.730;2023-09-08T00:39:02;22.11;65.73
67093;SHT31;54011;50.772;7.730;2023-09-08T00:41:28;22.13;65.60
67093;SHT31;54011;50.772;7.730;2023-09-08T00:43:54;22.40;64.83
67093;SHT31;54011;50.772;7.730;2023-09-08T00:46:21;22.45;64.13
67093;SHT31;54011;50.772;7.730;2023-09-08T00:48:47;22.41;64.46
67093;SHT31;54011;50.772;7.730;2023-09-08T00:51:14;22.45;64.45
67093;SHT31;54011;50.772;7.730;2023-09-08T00:53:40;22.41;64.97
67093;SHT31;54011;50.772;7.730;2023-09-08T00:56:05;22.05;66.03
67093;SHT31;54011;50.772;7.730;2023-09-08T00:58:31;22.21;65.87
67093;SHT31;54011;50.772;7.730;2023-09-08T01:00:57;21.94;65.69
67093;SHT31;54011;50.772;7.730;2023-09-08T01:03:24;22.04;64.58
67093;SHT31;54011;50.772;7.730;2023-09-08T01:05:51;21.98;64.67
67093;SHT31;54011;50.772;7.730;2023-09-08T01:08:18;21.98;64.75
67093;SHT31;54011;50.772;7.730;2023-09-08T01:10:45;22.03;65.09
67093;SHT31;54011;50.772;7.730;2023-09-08T01:13:11;21.66;66.82
67093;SHT31;54011;50.772;7.730;2023-09-08T01:15:36;21.79;66.71
67093;SHT31;54011;50.772;7.730;2023-09-08T01:18:02;21.87;66.56
67093;SHT31;54011;50.772;7.730;2023-09-08T01:20:59;22.05;66.31
67093;SHT31;54011;50.772;7.730;2023-09-08T01:26:30;22.21;64.98
67093;SHT31;54011;50.772;7.730;2023-09-08T01:28:57;21.76;64.46
67093;SHT31;54011;50.772;7.730;2023-09-08T01:31:23;22.01;63.64
67093;SHT31;54011;50.772;7.730;2023-09-08T01:33:50;21.47;64.79
67093;SHT31;54011;50.772;7.730;2023-09-08T01:36:16;21.28;65.63
67093;SHT31;54011;50.772;7.730;2023-09-08T01:38:41;21.16;65.42
67093;SHT31;54011;50.772;7.730;2023-09-08T01:41:07;20.82;65.57
67093;SHT31;54011;50.772;7.730;2023-09-08T01:43:33;20.91;65.41
67093;SHT31;54011;50.772;7.730;2023-09-08T01:45:58;20.82;65.94
67093;SHT31;54011;50.772;7.730;2023-09-08T01:48:24;20.78;65.82
67093;SHT31;54011;50.772;7.730;2023-09-08T01:50:49;20.60;66.00
67093;SHT31;54011;50.772;7.730;2023-09-08T01:53:16;20.77;65.54
67093;SHT31;54011;50.772;7.730;2023-09-08T01:55:41;21.16;65.01
67093;SHT31;54011;50.772;7.730;2023-09-08T01:58:07;21.06;67.44
67093;SHT31;54011;50.772;7.730;2023-09-08T02:00:32;21.13;67.23
67093;SHT31;54011;50.772;7.730;2023-09-08T02:02:58;21.46;67.05
67093;SHT31;54011;50.772;7.730;2023-09-08T02:05:24;21.43;67.30
67093;SHT31;54011;50.772;7.730;2023-09-08T02:07:51;21.42;67.70
67093;SHT31;54011;50.772;7.730;2023-09-08T02:10:17;21.64;67.32
67093;SHT31;54011;50.772;7.730;2023-09-08T02:12:45;21.42;67.87
67093;SHT31;54011;50.772;7.730;2023-09-08T02:15:11;21.72;66.78
67093;SHT31;54011;50.772;7.730;2023-09-08T02:17:37;21.73;66.82
67093;SHT31;54011;50.772;7.730;2023-09-08T02:20:03;21.73;66.36
67093;SHT31;54011;50.772;7.730;2023-09-08T02:22:29;22.10;65.07
67093;SHT31;54011;50.772;7.730;2023-09-08T02:24:54;21.98;65.02
67093;SHT31;54011;50.772;7.730;2023-09-08T02:27:22;22.21;64.83
67093;SHT31;54011;50.772;7.730;2023-09-08T02:29:50;21.91;65.03
67093;SHT31;54011;50.772;7.730;2023-09-08T02:32:15;21.31;65.40
67093;SHT31;54011;50.772;7.730;2023-09-08T02:34:41;21.36;65.28
67093;SHT31;54011;50.772;7.730;2023-09-08T02:37:08;21.09;66.02
67093;SHT31;54011;50.772;7.730;2023-09-08T02:39:35;20.91;66.00
67093;SHT31;54011;50.772;7.730;2023-09-08T02:42:01;21.32;64.74
67093;SHT31;54011;50.772;7.730;2023-09-08T02:44:27;21.28;64.64
67093;SHT31;54011;50.772;7.730;2023-09-08T02:46:53;20.85;65.72
67093;SHT31;54011;50.772;7.730;2023-09-08T02:49:20;20.50;66.30
67093;SHT31;54011;50.772;7.730;2023-09-08T02:51:47;20.63;65.87
67093;SHT31;54011;50.772;7.730;2023-09-08T02:54:12;20.81;65.53
67093;SHT31;54011;50.772;7.730;2023-09-08T02:56:38;20.87;65.87
67093;SHT31;54011;50.772;7.730;2023-09-08T02:59:04;20.84;65.46
67093;SHT31;54011;50.772;7.730;2023-09-08T03:01:30;20.61;65.74
67093;SHT31;54011;50.772;7.730;2023-09-08T03:03:55;20.45;66.02
67093;SHT31;54011;50.772;7.730;2023-09-08T03:06:21;20.73;65.68
67093;SHT31;54011;50.772;7.730;2023-09-08T03:08:49;20.85;65.33
67093;SHT31;54011;50.772;7.730;2023-09-08T03:11:15;20.73;65.71
67093;SHT31;54011;50.772;7.730;2023-09-08T03:13:40;20.81;66.39
67093;SHT31;54011;50.772;7.730;2023-09-08T03:16:07;20.70;65.69
67093;SHT31;54011;50.772;7.730;2023-09-08T03:18:33;20.73;65.96
67093;SHT31;54011;50.772;7.730;2023-09-08T03:21:00;20.82;66.85
67093;SHT31;54011;50.772;7.730;2023-09-08T03:23:29;20.85;66.15
67093;SHT31;54011;50.772;7.730;2023-09-08T03:25:55;20.82;67.12
67093;SHT31;54011;50.772;7.730;2023-09-08T03:28:20;20.81;67.62
67093;SHT31;54011;50.772;7.730;2023-09-08T03:30:47;20.75;67.08
67093;SHT31;54011;50.772;7.730;2023-09-08T03:33:12;20.51;66.89
67093;SHT31;54011;50.772;7.730;2023-09-08T03:35:39;20.64;66.02
67093;SHT31;54011;50.772;7.730;2023-09-08T03:38:05;20.33;66.41
67093;SHT31;54011;50.772;7.730;2023-09-08T03:40:31;20.23;65.96
67093;SHT31;54011;50.772;7.730;2023-09-08T03:42:56;19.95;66.48
67093;SHT31;54011;50.772;7.730;2023-09-08T03:45:23;20.00;66.11
67093;SHT31;54011;50.772;7.730;2023-09-08T03:47:48;19.90;65.90
67093;SHT31;54011;50.772;7.730;2023-09-08T03:50:15;19.69;66.30
67093;SHT31;54011;50.772;7.730;2023-09-08T03:52:40;19.86;65.85
67093;SHT31;54011;50.772;7.730;2023-09-08T03:55:07;19.90;66.25
67093;SHT31;54011;50.772;7.730;2023-09-08T03:57:33;20.23;65.82
67093;SHT31;54011;50.772;7.730;2023-09-08T03:59:59;20.19;65.58
67093;SHT31;54011;50.772;7.730;2023-09-08T04:02:39;20.10;65.89
67093;SHT31;54011;50.772;7.730;2023-09-08T04:05:07;20.02;65.76
67093;SHT31;54011;50.772;7.730;2023-09-08T04:07:34;19.89;66.20
67093;SHT31;54011;50.772;7.730;2023-09-08T04:10:01;19.68;66.45
67093;SHT31;54011;50.772;7.730;2023-09-08T04:12:27;19.47;66.91
67093;SHT31;54011;50.772;7.730;2023-09-08T04:14:53;19.36;67.39
67093;SHT31;54011;50.772;7.730;2023-09-08T04:17:19;19.24;67.20
67093;SHT31;54011;50.772;7.730;2023-09-08T04:19:45;19.39;67.06
67093;SHT31;54011;50.772;7.730;2023-09-08T04:22:11;19.51;66.79
67093;SHT31;54011;50.772;7.730;2023-09-08T04:24:37;19.41;66.79
67093;SHT31;54011;50.772;7.730;2023-09-08T04:27:03;19.44;66.91
67093;SHT31;54011;50.772;7.730;2023-09-08T04:29:29;19.54;67.18
67093;SHT31;54011;50.772;7.730;2023-09-08T04:31:55;19.64;66.58
67093;SHT31;54011;50.772;7.730;2023-09-08T04:34:21;19.89;66.14
67093;SHT31;54011;50.772;7.730;2023-09-08T04:36:47;19.93;66.59
67093;SHT31;54011;50.772;7.730;2023-09-08T04:39:13;19.75;67.21
67093;SHT31;54011;50.772;7.730;2023-09-08T04:41:41;19.71;67.01
67093;SHT31;54011;50.772;7.730;2023-09-08T04:44:06;19.44;67.12
67093;SHT31;54011;50.772;7.730;2023-09-08T04:46:34;19.51;66.83
67093;SHT31;54011;50.772;7.730;2023-09-08T04:49:01;19.20;67.45
67093;SHT31;54011;50.772;7.730;2023-09-08T04:51:27;19.18;67.69
67093;SHT31;54011;50.772;7.730;2023-09-08T04:53:53;19.35;67.17
67093;SHT31;54011;50.772;7.730;2023-09-08T04:56:19;19.24;67.17
67093;SHT31;54011;50.772;7.730;2023-09-08T04:58:45;19.20;67.36
67093;SHT31;54011;50.772;7.730;2023-09-08T05:01:13;19.44;66.87
67093;SHT31;54011;50.772;7.730;2023-09-08T05:03:39;19.54;66.20
67093;SHT31;54011;50.772;7.730;2023-09-08T05:06:07;18.93;67.83
67093;SHT31;54011;50.772;7.730;2023-09-08T05:08:33;19.11;67.17
67093;SHT31;54011;50.772;7.730;2023-09-08T05:10:59;19.15;67.37
67093;SHT31;54011;50.772;7.730;2023-09-08T05:13:25;19.45;66.71
67093;SHT31;54011;50.772;7.730;2023-09-08T05:15:53;19.28;67.19
67093;SHT31;54011;50.772;7.730;2023-09-08T05:18:27;19.32;66.91
67093;SHT31;54011;50.772;7.730;2023-09-08T05:20:55;19.57;66.73
67093;SHT31;54011;50.772;7.730;2023-09-08T05:23:21;19.25;67.41
67093;SHT31;54011;50.772;7.730;2023-09-08T05:25:47;19.31;67.22
67093;SHT31;54011;50.772;7.730;2023-09-08T05:28:13;19.17;67.45
67093;SHT31;54011;50.772;7.730;2023-09-08T05:30:39;19.00;67.59
67093;SHT31;54011;50.772;7.730;2023-09-08T05:33:05;18.97;68.16
67093;SHT31;54011;50.772;7.730;2023-09-08T05:35:33;19.10;67.88
67093;SHT31;54011;50.772;7.730;2023-09-08T05:37:59;19.36;67.49
67093;SHT31;54011;50.772;7.730;2023-09-08T05:40:25;19.18;67.43
67093;SHT31;54011;50.772;7.730;2023-09-08T05:42:53;19.15;67.79
67093;SHT31;54011;50.772;7.730;2023-09-08T05:45:19;19.39;67.28
67093;SHT31;54011;50.772;7.730;2023-09-08T05:47:47;19.36;67.50
67093;SHT31;54011;50.772;7.730;2023-09-08T05:50:15;19.44;67.27
67093;SHT31;54011;50.772;7.730;2023-09-08T05:52:41;19.48;67.19
67093;SHT31;54011;50.772;7.730;2023-09-08T05:55:07;19.57;67.16
67093;SHT31;54011;50.772;7.730;2023-09-08T05:57:35;19.90;66.45
67093;SHT31;54011;50.772;7.730;2023-09-08T06:00:03;19.86;66.36
67093;SHT31;54011;50.772;7.730;2023-09-08T06:02:39;19.79;67.07
67093;SHT31;54011;50.772;7.730;2023-09-08T06:05:07;20.03;67.62
67093;SHT31;54011;50.772;7.730;2023-09-08T06:07:33;20.10;68.58
67093;SHT31;54011;50.772;7.730;2023-09-08T06:09:59;20.43;68.16
67093;SHT31;54011;50.772;7.730;2023-09-08T06:12:25;20.51;68.41
67093;SHT31;54011;50.772;7.730;2023-09-08T06:14:51;20.65;68.29
67093;SHT31;54011;50.772;7.730;2023-09-08T06:17:18;20.73;67.97
67093;SHT31;54011;50.772;7.730;2023-09-08T06:19:45;20.95;67.65
67093;SHT31;54011;50.772;7.730;2023-09-08T06:22:11;20.98;67.82
67093;SHT31;54011;50.772;7.730;2023-09-08T06:24:37;21.15;67.27
67093;SHT31;54011;50.772;7.730;2023-09-08T06:27:03;21.42;67.12
67093;SHT31;54011;50.772;7.730;2023-09-08T06:29:31;21.42;67.23
67093;SHT31;54011;50.772;7.730;2023-09-08T06:31:58;21.11;68.12
67093;SHT31;54011;50.772;7.730;2023-09-08T06:34:25;21.31;67.19
67093;SHT31;54011;50.772;7.730;2023-09-08T06:36:51;21.50;67.36
67093;SHT31;54011;50.772;7.730;2023-09-08T06:39:17;21.64;67.20
67093;SHT31;54011;50.772;7.730;2023-09-08T06:41:43;21.96;66.44
67093;SHT31;54011;50.772;7.730;2023-09-08T06:44:11;21.97;66.26
67093;SHT31;54011;50.772;7.730;2023-09-08T06:46:39;22.35;65.71
67093;SHT31;54011;50.772;7.730;2023-09-08T06:49:07;22.22;65.04
67093;SHT31;54011;50.772;7.730;2023-09-08T06:51:33;21.98;66.29
67093;SHT31;54011;50.772;7.730;2023-09-08T06:53:59;22.49;65.54
67093;SHT31;54011;50.772;7.730;2023-09-08T06:56:35;22.58;65.40
67093;SHT31;54011;50.772;7.730;2023-09-08T06:59:03;22.62;65.10
67093;SHT31;54011;50.772;7.730;2023-09-08T07:01:29;22.95;64.74
67093;SHT31;54011;50.772;7.730;2023-09-08T07:03:55;22.68;65.27
67093;SHT31;54011;50.772;7.730;2023-09-08T07:06:21;22.96;64.72
67093;SHT31;54011;50.772;7.730;2023-09-08T07:08:49;23.23;64.00
67093;SHT31;54011;50.772;7.730;2023-09-08T07:11:17;23.39;63.92
67093;SHT31;54011;50.772;7.730;2023-09-08T07:13:43;23.43;63.53
67093;SHT31;54011;50.772;7.730;2023-09-08T07:16:11;23.54;63.38
67093;SHT31;54011;50.772;7.730;2023-09-08T07:18:37;23.46;64.32
67093;SHT31;54011;50.772;7.730;2023-09-08T07:21:05;23.85;63.36
67093;SHT31;54011;50.772;7.730;2023-09-08T07:23:31;23.44;63.80
67093;SHT31;54011;50.772;7.730;2023-09-08T07:25:57;23.92;63.83
67093;SHT31;54011;50.772;7.730;2023-09-08T07:28:27;24.29;62.83
67093;SHT31;54011;50.772;7.730;2023-09-08T07:31:04;24.40;62.33
67093;SHT31;54011;50.772;7.730;2023-09-08T07:33:33;24.28;63.12
67093;SHT31;54011;50.772;7.730;2023-09-08T07:36:04;24.60;62.19
67093;SHT31;54011;50.772;7.730;2023-09-08T07:38:31;24.83;62.52
67093;SHT31;54011;50.772;7.730;2023-09-08T07:41:00;25.12;61.38
67093;SHT31;54011;50.772;7.730;2023-09-08T07:43:28;25.31;61.24
67093;SHT31;54011;50.772;7.730;2023-09-08T07:45:55;25.08;61.27
67093;SHT31;54011;50.772;7.730;2023-09-08T07:48:21;25.45;61.29
67093;SHT31;54011;50.772;7.730;2023-09-08T07:50:49;25.57;61.12
67093;SHT31;54011;50.772;7.730;2023-09-08T07:53:15;26.03;60.72
67093;SHT31;54011;50.772;7.730;2023-09-08T07:55:41;26.23;59.34
67093;SHT31;54011;50.772;7.730;2023-09-08T07:58:08;26.44;59.34
67093;SHT31;54011;50.772;7.730;2023-09-08T08:00:36;26.69;59.04
67093;SHT31;54011;50.772;7.730;2023-09-08T08:03:01;26.85;58.41
67093;SHT31;54011;50.772;7.730;2023-09-08T08:05:29;26.89;58.27
67093;SHT31;54011;50.772;7.730;2023-09-08T08:07:55;27.08;58.13
67093;SHT31;54011;50.772;7.730;2023-09-08T08:10:20;27.45;57.80
67093;SHT31;54011;50.772;7.730;2023-09-08T08:12:47;27.76;56.79
67093;SHT31;54011;50.772;7.730;2023-09-08T08:15:13;27.86;56.97
67093;SHT31;54011;50.772;7.730;2023-09-08T08:17:40;28.58;56.25
67093;SHT31;54011;50.772;7.730;2023-09-08T08:20:06;28.95;55.17
67093;SHT31;54011;50.772;7.730;2023-09-08T08:22:33;28.46;55.98
67093;SHT31;54011;50.772;7.730;2023-09-08T08:25:01;29.11;54.89
67093;SHT31;54011;50.772;7.730;2023-09-08T08:27:30;29.89;54.12
67093;SHT31;54011;50.772;7.730;2023-09-08T08:29:58;30.12;52.95
67093;SHT31;54011;50.772;7.730;2023-09-08T08:32:26;29.62;54.15
67093;SHT31;54011;50.772;7.730;2023-09-08T08:34:53;29.44;54.56
67093;SHT31;54011;50.772;7.730;2023-09-08T08:37:19;29.35;54.89
67093;SHT31;54011;50.772;7.730;2023-09-08T08:39:45;30.09;53.43
67093;SHT31;54011;50.772;7.730;2023-09-08T08:42:11;30.37;53.44
67093;SHT31;54011;50.772;7.730;2023-09-08T08:44:38;30.27;53.58
67093;SHT31;54011;50.772;7.730;2023-09-08T08:47:07;31.16;52.49
67093;SHT31;54011;50.772;7.730;2023-09-08T08:49:33;31.46;52.03
67093;SHT31;54011;50.772;7.730;2023-09-08T08:52:00;31.31;52.01
67093;SHT31;54011;50.772;7.730;2023-09-08T08:54:39;32.16;50.77
67093;SHT31;54011;50.772;7.730;2023-09-08T08:57:06;32.48;50.56
67093;SHT31;54011;50.772;7.730;2023-09-08T08:59:31;32.17;51.40
67093;SHT31;54011;50.772;7.730;2023-09-08T09:01:59;32.99;49.66
67093;SHT31;54011;50.772;7.730;2023-09-08T09:04:27;32.14;50.67
67093;SHT31;54011;50.772;7.730;2023-09-08T09:06:53;32.75;50.91
67093;SHT31;54011;50.772;7.730;2023-09-08T09:09:20;32.70;50.38
67093;SHT31;54011;50.772;7.730;2023-09-08T09:11:48;32.27;50.91
67093;SHT31;54011;50.772;7.730;2023-09-08T09:14:15;33.42;49.09
67093;SHT31;54011;50.772;7.730;2023-09-08T09:16:43;32.98;48.56
67093;SHT31;54011;50.772;7.730;2023-09-08T09:19:17;33.09;46.40
67093;SHT31;54011;50.772;7.730;2023-09-08T09:21:48;33.62;45.84
67093;SHT31;54011;50.772;7.730;2023-09-08T09:24:27;33.93;47.76
67093;SHT31;54011;50.772;7.730;2023-09-08T09:26:57;33.66;48.32
67093;SHT31;54011;50.772;7.730;2023-09-08T09:29:23;34.53;45.45
67093;SHT31;54011;50.772;7.730;2023-09-08T09:31:56;34.42;44.85
67093;SHT31;54011;50.772;7.730;2023-09-08T09:34:26;33.93;46.40
67093;SHT31;54011;50.772;7.730;2023-09-08T09:36:53;34.70;44.28
67093;SHT31;54011;50.772;7.730;2023-09-08T09:39:23;34.27;42.95
67093;SHT31;54011;50.772;7.730;2023-09-08T09:41:56;35.36;41.70
67093;SHT31;54011;50.772;7.730;2023-09-08T09:44:24;35.06;42.17
67093;SHT31;54011;50.772;7.730;2023-09-08T09:46:53;35.33;43.02
67093;SHT31;54011;50.772;7.730;2023-09-08T09:49:19;34.89;41.99
67093;SHT31;54011;50.772;7.730;2023-09-08T09:51:47;36.06;41.22
67093;SHT31;54011;50.772;7.730;2023-09-08T09:54:14;35.74;41.36
67093;SHT31;54011;50.772;7.730;2023-09-08T09:56:43;35.26;41.59
67093;SHT31;54011;50.772;7.730;2023-09-08T09:59:11;35.68;40.87
67093;SHT31;54011;50.772;7.730;2023-09-08T10:01:39;35.89;40.65
67093;SHT31;54011;50.772;7.730;2023-09-08T10:04:06;36.65;40.40
67093;SHT31;54011;50.772;7.730;2023-09-08T10:06:35;36.76;40.85
67093;SHT31;54011;50.772;7.730;2023-09-08T10:09:02;36.14;40.29
67093;SHT31;54011;50.772;7.730;2023-09-08T10:11:37;36.93;39.12
67093;SHT31;54011;50.772;7.730;2023-09-08T10:14:06;37.21;38.61
67093;SHT31;54011;50.772;7.730;2023-09-08T10:16:39;37.74;38.73
67093;SHT31;54011;50.772;7.730;2023-09-08T10:19:11;37.35;38.80
67093;SHT31;54011;50.772;7.730;2023-09-08T10:21:41;37.31;38.02
67093;SHT31;54011;50.772;7.730;2023-09-08T10:24:27;37.96;37.32
67093;SHT31;54011;50.772;7.730;2023-09-08T10:26:58;37.07;38.40
67093;SHT31;54011;50.772;7.730;2023-09-08T10:29:27;36.65;38.26
67093;SHT31;54011;50.772;7.730;2023-09-08T10:31:55;37.42;37.17
67093;SHT31;54011;50.772;7.730;2023-09-08T10:34:22;37.23;37.86
67093;SHT31;54011;50.772;7.730;2023-09-08T10:36:50;37.79;37.24
67093;SHT31;54011;50.772;7.730;2023-09-08T10:39:34;38.05;37.80
67093;SHT31;54011;50.772;7.730;2023-09-08T10:47:24;38.59;37.28
67093;SHT31;54011;50.772;7.730;2023-09-08T10:49:53;38.23;37.26
67093;SHT31;54011;50.772;7.730;2023-09-08T10:52:24;37.66;37.28
67093;SHT31;54011;50.772;7.730;2023-09-08T10:54:54;38.44;36.50
67093;SHT31;54011;50.772;7.730;2023-09-08T10:57:23;38.93;36.29
67093;SHT31;54011;50.772;7.730;2023-09-08T11:00:00;38.83;36.01
67093;SHT31;54011;50.772;7.730;2023-09-08T11:02:50;38.05;35.95
67093;SHT31;54011;50.772;7.730;2023-09-08T11:05:23;38.03;35.88
67093;SHT31;54011;50.772;7.730;2023-09-08T11:07:50;37.95;36.20
67093;SHT31;54011;50.772;7.730;2023-09-08T11:10:18;38.34;36.74
67093;SHT31;54011;50.772;7.730;2023-09-08T11:12:43;38.74;36.59
67093;SHT31;54011;50.772;7.730;2023-09-08T11:15:09;38.01;36.63
67093;SHT31;54011;50.772;7.730;2023-09-08T11:17:37;37.51;36.95
67093;SHT31;54011;50.772;7.730;2023-09-08T11:20:08;38.24;36.66
67093;SHT31;54011;50.772;7.730;2023-09-08T11:22:36;38.47;36.00
67093;SHT31;54011;50.772;7.730;2023-09-08T11:25:03;38.56;35.71
67093;SHT31;54011;50.772;7.730;2023-09-08T11:27:32;38.54;36.87
67093;SHT31;54011;50.772;7.730;2023-09-08T11:29:58;38.91;35.68
67093;SHT31;54011;50.772;7.730;2023-09-08T11:32:24;39.14;35.13
67093;SHT31;54011;50.772;7.730;2023-09-08T11:34:50;39.18;35.66
67093;SHT31;54011;50.772;7.730;2023-09-08T11:37:17;39.29;35.72
67093;SHT31;54011;50.772;7.730;2023-09-08T11:39:47;40.02;34.49
67093;SHT31;54011;50.772;7.730;2023-09-08T11:42:15;39.28;35.56
67093;SHT31;54011;50.772;7.730;2023-09-08T11:44:42;39.55;34.98
67093;SHT31;54011;50.772;7.730;2023-09-08T11:47:09;39.96;34.76
67093;SHT31;54011;50.772;7.730;2023-09-08T11:49:40;39.31;34.97
67093;SHT31;54011;50.772;7.730;2023-09-08T11:52:07;39.55;35.42
67093;SHT31;54011;50.772;7.730;2023-09-08T11:54:35;40.24;34.48
67093;SHT31;54011;50.772;7.730;2023-09-08T11:57:03;40.89;32.70
67093;SHT31;54011;50.772;7.730;2023-09-08T11:59:33;40.81;32.99
67093;SHT31;54011;50.772;7.730;2023-09-08T12:02:00;40.14;34.07
67093;SHT31;54011;50.772;7.730;2023-09-08T12:04:26;40.89;33.60
67093;SHT31;54011;50.772;7.730;2023-09-08T12:06:53;40.79;33.56
67093;SHT31;54011;50.772;7.730;2023-09-08T12:09:22;39.96;33.51
67093;SHT31;54011;50.772;7.730;2023-09-08T12:11:48;39.97;33.59
67093;SHT31;54011;50.772;7.730;2023-09-08T12:14:15;40.71;33.03
67093;SHT31;54011;50.772;7.730;2023-09-08T12:16:42;39.94;33.83
67093;SHT31;54011;50.772;7.730;2023-09-08T12:19:11;40.95;33.36
67093;SHT31;54011;50.772;7.730;2023-09-08T12:21:55;40.43;34.83
67093;SHT31;54011;50.772;7.730;2023-09-08T12:24:47;40.58;33.79
67093;SHT31;54011;50.772;7.730;2023-09-08T12:27:18;40.02;34.99
67093;SHT31;54011;50.772;7.730;2023-09-08T12:29:53;40.48;33.78
67093;SHT31;54011;50.772;7.730;2023-09-08T12:32:20;41.19;32.99
67093;SHT31;54011;50.772;7.730;2023-09-08T12:34:45;40.39;33.67
67093;SHT31;54011;50.772;7.730;2023-09-08T12:37:12;40.51;33.46
67093;SHT31;54011;50.772;7.730;2023-09-08T12:39:41;39.74;34.64
67093;SHT31;54011;50.772;7.730;2023-09-08T12:42:08;41.39;33.21
67093;SHT31;54011;50.772;7.730;2023-09-08T12:44:34;41.74;32.60
67093;SHT31;54011;50.772;7.730;2023-09-08T12:47:00;41.26;31.79
67093;SHT31;54011;50.772;7.730;2023-09-08T12:49:25;40.64;32.94
67093;SHT31;54011;50.772;7.730;2023-09-08T12:51:52;40.57;33.56
67093;SHT31;54011;50.772;7.730;2023-09-08T12:54:17;40.36;33.59
67093;SHT31;54011;50.772;7.730;2023-09-08T12:56:44;40.39;34.88
67093;SHT31;54011;50.772;7.730;2023-09-08T12:59:09;40.29;33.60
67093;SHT31;54011;50.772;7.730;2023-09-08T13:01:36;40.77;32.70
67093;SHT31;54011;50.772;7.730;2023-09-08T13:04:02;40.11;33.83
67093;SHT31;54011;50.772;7.730;2023-09-08T13:06:28;41.23;32.62
67093;SHT31;54011;50.772;7.730;2023-09-08T13:08:54;41.60;31.56
67093;SHT31;54011;50.772;7.730;2023-09-08T13:11:20;40.58;33.34
67093;SHT31;54011;50.772;7.730;2023-09-08T13:13:45;42.00;32.98
67093;SHT31;54011;50.772;7.730;2023-09-08T13:16:12;42.42;31.05
67093;SHT31;54011;50.772;7.730;2023-09-08T13:18:38;40.65;33.05
67093;SHT31;54011;50.772;7.730;2023-09-08T13:21:04;42.03;31.76
67093;SHT31;54011;50.772;7.730;2023-09-08T13:23:32;42.39;31.90
67093;SHT31;54011;50.772;7.730;2023-09-08T13:25:58;42.34;32.62
67093;SHT31;54011;50.772;7.730;2023-09-08T13:28:23;41.56;32.03
67093;SHT31;54011;50.772;7.730;2023-09-08T13:30:50;42.27;32.79
67093;SHT31;54011;50.772;7.730;2023-09-08T13:33:15;42.79;32.50
67093;SHT31;54011;50.772;7.730;2023-09-08T13:35:42;42.80;31.58
67093;SHT31;54011;50.772;7.730;2023-09-08T13:38:07;42.45;31.98
67093;SHT31;54011;50.772;7.730;2023-09-08T13:40:34;42.55;32.46
67093;SHT31;54011;50.772;7.730;2023-09-08T13:43:00;42.44;32.17
67093;SHT31;54011;50.772;7.730;2023-09-08T13:45:26;41.94;33.36
67093;SHT31;54011;50.772;7.730;2023-09-08T13:47:52;42.00;32.68
67093;SHT31;54011;50.772;7.730;2023-09-08T13:50:18;43.14;30.84
67093;SHT31;54011;50.772;7.730;2023-09-08T13:52:43;42.68;32.05
67093;SHT31;54011;50.772;7.730;2023-09-08T13:55:10;42.79;31.22
67093;SHT31;54011;50.772;7.730;2023-09-08T13:57:36;43.02;31.43
67093;SHT31;54011;50.772;7.730;2023-09-08T14:00:02;43.73;30.93
67093;SHT31;54011;50.772;7.730;2023-09-08T14:02:35;43.78;31.52
67093;SHT31;54011;50.772;7.730;2023-09-08T14:05:02;44.60;30.33
67093;SHT31;54011;50.772;7.730;2023-09-08T14:07:28;43.65;30.61
67093;SHT31;54011;50.772;7.730;2023-09-08T14:09:54;44.09;30.45
67093;SHT31;54011;50.772;7.730;2023-09-08T14:12:20;43.33;32.09
67093;SHT31;54011;50.772;7.730;2023-09-08T14:14:48;43.57;31.17
67093;SHT31;54011;50.772;7.730;2023-09-08T14:17:14;43.67;30.41
67093;SHT31;54011;50.772;7.730;2023-09-08T14:19:40;43.43;30.55
67093;SHT31;54011;50.772;7.730;2023-09-08T14:22:06;41.87;32.31
67093;SHT31;54011;50.772;7.730;2023-09-08T14:24:32;42.59;32.51
67093;SHT31;54011;50.772;7.730;2023-09-08T14:26:58;43.34;32.06
67093;SHT31;54011;50.772;7.730;2023-09-08T14:29:24;42.54;33.70
67093;SHT31;54011;50.772;7.730;2023-09-08T14:31:50;42.44;32.34
67093;SHT31;54011;50.772;7.730;2023-09-08T14:34:16;42.25;33.28
67093;SHT31;54011;50.772;7.730;2023-09-08T14:36:43;43.17;32.25
67093;SHT31;54011;50.772;7.730;2023-09-08T14:39:10;44.06;30.90
67093;SHT31;54011;50.772;7.730;2023-09-08T14:41:36;43.34;32.56
67093;SHT31;54011;50.772;7.730;2023-09-08T14:44:02;43.24;32.82
67093;SHT31;54011;50.772;7.730;2023-09-08T14:46:28;42.60;31.65
67093;SHT31;54011;50.772;7.730;2023-09-08T14:48:54;43.48;31.29
67093;SHT31;54011;50.772;7.730;2023-09-08T14:51:21;43.20;31.41
67093;SHT31;54011;50.772;7.730;2023-09-08T14:53:48;41.87;33.89
67093;SHT31;54011;50.772;7.730;2023-09-08T14:56:14;42.32;33.35
67093;SHT31;54011;50.772;7.730;2023-09-08T14:58:40;43.17;32.39
67093;SHT31;54011;50.772;7.730;2023-09-08T15:01:06;41.54;33.45
67093;SHT31;54011;50.772;7.730;2023-09-08T15:03:34;42.68;33.19
67093;SHT31;54011;50.772;7.730;2023-09-08T15:06:00;43.36;32.94
67093;SHT31;54011;50.772;7.730;2023-09-08T15:08:26;42.41;32.64
67093;SHT31;54011;50.772;7.730;2023-09-08T15:10:52;44.35;32.56
67093;SHT31;54011;50.772;7.730;2023-09-08T15:13:18;43.87;32.09
67093;SHT31;54011;50.772;7.730;2023-09-08T15:15:44;42.58;34.67
67093;SHT31;54011;50.772;7.730;2023-09-08T15:18:10;43.14;33.58
67093;SHT31;54011;50.772;7.730;2023-09-08T15:20:35;42.63;32.20
67093;SHT31;54011;50.772;7.730;2023-09-08T15:23:01;44.28;31.83
67093;SHT31;54011;50.772;7.730;2023-09-08T15:25:28;43.30;31.32
67093;SHT31;54011;50.772;7.730;2023-09-08T15:27:54;43.53;31.85
67093;SHT31;54011;50.772;7.730;2023-09-08T15:30:20;43.84;31.41
67093;SHT31;54011;50.772;7.730;2023-09-08T15:32:46;43.73;31.40
67093;SHT31;54011;50.772;7.730;2023-09-08T15:35:11;43.27;31.70
67093;SHT31;54011;50.772;7.730;2023-09-08T15:37:38;43.48;31.73